Pagrindinis puslapis
METAR-TAF:

METAR-TAF

Oro uostai :

Latakunga, Ekvadoras

platuma: 00-55S, ilguma: 078-37W, Aukštis: 2785 m

Dabartinis oras

Ataskaita buvo paskelbta 9 valandos ir 50 minutes, ne 23:00 UTC
Vėjas 12 kt iš Pietų
Temperatūra 13°C
Drėgmė 67%
Slėgis 1027 hPa
Matomumas 10 km arba daugiau
Mažai debesys ne aukštis 3000 ft

METAR: SELT 202300Z 17012KT 9999 FEW030 13/07 Q1027

Laikas: 03:50 (08:50 UTC)

Prognozė

Ataskaita buvo paskelbta 4 valandos ir 40 minutes, ne 04:10 UTC
Prognozė galioja nuo 21 metu 06 UTC su 22 metu 06 UTC
Vėjas 3 kt nuo kintamojo kryptimis
Matomumas 10 km arba daugiau
Išsisklaidę debesys ne aukštis 1000 ft
Su prošvaistėmis ne aukštis 2600 ft
Tapsmas
nuo 21 metu 13 UTC su 21 metu 15 UTC
Vėjas 15 kt iš Pietų
Su prošvaistėmis ne aukštis 3000 ft
Tapsmas
nuo 21 metu 22 UTC su 21 metu 24 UTC
Vėjas 5 kt iš Pietų
Mažai debesys ne aukštis 3000 ft

TAF: SELT 210410Z 2106/2206 VRB03KT 9999 SCT010 BKN026 BECMG 2113/2115 18015KT BKN030 BECMG 2122/2124 17005KT FEW030 TX17/2119Z TN06/2111Z

Orai ataskaitas ir orų prognozės (METAR, TAF).

turimą stotys yra geltonos ir raudonos taškus žemėlapyje.

Perkelti pele per norėdami pamatyti stoties vardą.

Tada spustelėkite, norėdami matyti oro stebėjimo ir prognozės.

Norėdami pakeisti žemėlapį: spustelėkite ant žalios mygtukų su juodo kryžiaus žemyn,; žalią mygtuką su brūkšneliu, jei norite nutolinti; arba žalių rodyklių gretimoms žemėlapius.


METAR-TAF: